createdAt,value
2019-03-30T00:00:04.223Z,1028.27
2019-03-30T00:10:02.975Z,1028.32
2019-03-30T00:20:03.557Z,1028.34
2019-03-30T00:30:04.295Z,1028.27
2019-03-30T00:40:03.124Z,1028.17
2019-03-30T00:50:03.783Z,1028.12
2019-03-30T01:00:04.232Z,1028.07
2019-03-30T01:10:03.703Z,1028.19
2019-03-30T01:20:04.476Z,1028.21
2019-03-30T01:30:04.000Z,1028.21
2019-03-30T01:40:02.835Z,1028.15
2019-03-30T01:50:18.416Z,1028.09
2019-03-30T02:00:03.983Z,1028.05
2019-03-30T02:10:03.632Z,1027.97
2019-03-30T02:20:03.320Z,1027.85
2019-03-30T02:30:04.225Z,1027.80
2019-03-30T02:40:03.205Z,1027.80
2019-03-30T02:50:03.636Z,1027.76
2019-03-30T03:00:04.088Z,1027.68
2019-03-30T03:10:03.827Z,1027.58
2019-03-30T03:20:03.669Z,1027.56
2019-03-30T03:30:04.338Z,1027.59
2019-03-30T03:40:02.803Z,1027.62
2019-03-30T03:50:03.454Z,1027.63
2019-03-30T04:00:04.014Z,1027.73
2019-03-30T04:10:03.496Z,1027.70
2019-03-30T04:20:03.317Z,1027.69
2019-03-30T04:30:03.862Z,1027.72
2019-03-30T04:40:03.223Z,1027.89
2019-03-30T04:50:03.369Z,1027.99
2019-03-30T05:00:04.218Z,1027.99
2019-03-30T05:10:03.735Z,1028.07
2019-03-30T05:20:03.372Z,1028.07
2019-03-30T05:30:04.285Z,1028.13
2019-03-30T05:40:03.720Z,1028.13
2019-03-30T05:50:03.378Z,1028.18
2019-03-30T06:00:03.652Z,1028.22
2019-03-30T06:10:03.198Z,1028.20
2019-03-30T06:20:02.975Z,1028.23
2019-03-30T06:30:04.828Z,1028.08
2019-03-30T06:40:02.817Z,1027.98
2019-03-30T06:50:03.620Z,1027.98
2019-03-30T07:00:03.970Z,1027.95
2019-03-30T07:10:03.547Z,1028.01
2019-03-30T07:20:03.157Z,1028.02
2019-03-30T07:30:04.105Z,1027.91
2019-03-30T07:40:03.367Z,1027.83
2019-03-30T07:50:02.970Z,1027.68
2019-03-30T08:00:04.637Z,1027.70
2019-03-30T08:10:03.236Z,1027.66
2019-03-30T08:20:03.046Z,1027.68
2019-03-30T08:30:04.488Z,1027.64
2019-03-30T08:40:02.909Z,1027.48
2019-03-30T08:50:03.933Z,1027.43
2019-03-30T09:00:04.447Z,1027.40
2019-03-30T09:10:03.965Z,1027.31
2019-03-30T09:20:02.916Z,1027.23
2019-03-30T09:30:04.607Z,1027.12
2019-03-30T09:40:02.957Z,1027.10
2019-03-30T09:50:03.844Z,1026.94
2019-03-30T10:00:04.365Z,1026.86
2019-03-30T10:10:03.136Z,1026.80
2019-03-30T10:20:05.823Z,1026.73
2019-03-30T10:30:04.095Z,1026.60
2019-03-30T10:40:04.100Z,1026.50
2019-03-30T10:50:03.611Z,1026.45
2019-03-30T11:00:04.258Z,1026.36
2019-03-30T11:10:02.908Z,1026.31
2019-03-30T11:20:03.743Z,1026.06
2019-03-30T11:30:04.452Z,1025.93
2019-03-30T11:40:03.399Z,1025.77
2019-03-30T11:50:02.970Z,1025.63
2019-03-30T12:00:04.267Z,1025.52
2019-03-30T12:10:03.016Z,1025.40
2019-03-30T12:20:03.090Z,1025.22
2019-03-30T12:30:06.131Z,1025.19
2019-03-30T12:40:03.359Z,1025.07
2019-03-30T12:50:03.912Z,1024.97
2019-03-30T13:00:04.361Z,1024.78
2019-03-30T13:10:04.075Z,1024.70
2019-03-30T13:20:03.237Z,1024.59
2019-03-30T13:30:05.274Z,1024.54
2019-03-30T13:40:03.494Z,1024.44
2019-03-30T13:50:03.106Z,1024.29
2019-03-30T14:00:03.996Z,1024.23
2019-03-30T14:10:03.350Z,1024.16
2019-03-30T14:20:02.891Z,1024.08
2019-03-30T14:30:04.402Z,1023.89
2019-03-30T14:40:02.889Z,1023.80
2019-03-30T14:50:03.413Z,1023.75
2019-03-30T15:00:03.771Z,1023.64
2019-03-30T15:10:03.516Z,1023.49
2019-03-30T15:20:03.021Z,1023.35
2019-03-30T15:30:04.542Z,1023.20
2019-03-30T15:40:03.913Z,1023.07
2019-03-30T15:50:04.091Z,1022.97
2019-03-30T16:00:06.821Z,1022.93
2019-03-30T16:10:03.068Z,1022.87
2019-03-30T16:20:03.545Z,1022.84
2019-03-30T16:30:04.059Z,1022.77
2019-03-30T16:40:03.507Z,1022.78
2019-03-30T16:50:02.917Z,1022.72
2019-03-30T17:00:03.723Z,1022.74
2019-03-30T17:10:03.379Z,1022.66
2019-03-30T17:20:03.075Z,1022.61
2019-03-30T17:30:04.561Z,1022.73
2019-03-30T17:40:03.116Z,1022.66
2019-03-30T17:50:03.723Z,1022.77
2019-03-30T18:00:03.537Z,1022.75
2019-03-30T18:10:04.705Z,1022.83
2019-03-30T18:20:03.362Z,1022.87
2019-03-30T18:30:04.483Z,1022.99
2019-03-30T18:40:03.121Z,1023.05
2019-03-30T18:50:03.722Z,1023.09
2019-03-30T19:00:04.463Z,1023.15
2019-03-30T19:10:02.938Z,1023.19
2019-03-30T19:20:03.297Z,1023.15
2019-03-30T19:30:05.362Z,1023.22
2019-03-30T19:40:03.604Z,1023.27
2019-03-30T19:50:02.987Z,1023.23
2019-03-30T20:00:04.532Z,1023.24
2019-03-30T20:10:03.774Z,1023.22
2019-03-30T20:20:03.402Z,1023.26
2019-03-30T20:30:03.845Z,1023.24
2019-03-30T20:40:03.193Z,1023.22
2019-03-30T20:50:04.161Z,1023.20
2019-03-30T21:00:03.844Z,1023.15
2019-03-30T21:10:03.544Z,1023.08
2019-03-30T21:20:03.315Z,1023.09
2019-03-30T21:30:03.858Z,1023.08
2019-03-30T21:40:03.216Z,1023.12
2019-03-30T21:50:03.227Z,1023.20
2019-03-30T22:00:11.978Z,1023.23
2019-03-30T22:10:02.887Z,1023.29
2019-03-30T22:20:03.673Z,1023.22
2019-03-30T22:30:04.310Z,1023.20
2019-03-30T22:40:03.503Z,1023.18
2019-03-30T22:50:02.976Z,1023.17
2019-03-30T23:00:04.503Z,1023.20
2019-03-30T23:10:03.245Z,1023.21
2019-03-30T23:20:02.805Z,1023.26
2019-03-30T23:30:04.363Z,1023.23
2019-03-30T23:40:03.712Z,1023.26
2019-03-30T23:50:03.169Z,1023.30
